Wednesday, January 17, 2018, 4:41 PM EST
Back to Local

KPOU, Poughkeepsie Dutchess Cty

Location: Wappingers Falls, NY, United States Lat: 41.633
Local Time: 4:41 PM EST (21:41 GMT) Lon: -73.883
Time Zone: US/Eastern Elev: 167 ft

Show me the last for .
Show Decoded

2018-01-17 15:53 METAR KPOU 172053Z 35005KT 10SM OVC014 M01/M04 A3019 RMK AO2 SNE1957 SLP221
                 P0000 60001 T10111044 55006 =
2018-01-17 15:01 METAR KPOU 172001Z 33006KT 8SM BKN012 OVC020 M01/M03 A3018 RMK AO2 SNE1957 P0000
                 T10061028 =
2018-01-17 14:53 METAR KPOU 171953Z 33005KT 4SM SN FZFG BKN009 BKN015 OVC022 M01/M03 A3017 RMK
                 AO2 SLP216 P0000 T10061028 =
2018-01-17 14:06 METAR KPOU 171906Z VRB03KT 4SM SN FZFG BKN009 BKN015 OVC022 M01/M02 A3018 RMK
                 AO2 P0000 T10061022 =
2018-01-17 13:56 METAR KPOU 171856Z 00000KT 4SM SN FZFG SCT009 BKN015 OVC022 M01/M03 A3018 RMK
                 AO2 P0000 T10061028 =
2018-01-17 13:53 METAR KPOU 171853Z 36004KT 1/2SM SN FZFG OVC006 M01/M03 A3018 RMK AO2 SLP218
                 P0001 T10061028 =
2018-01-17 12:53 METAR KPOU 171753Z 00000KT 1/2SM SN FZFG OVC006 M01/M02 A3020 RMK AO2 SLP226
                 P0004 60011 T10111022 11011 21022 58022 =
2018-01-17 11:53 METAR KPOU 171653Z 30003KT 1/2SM SN FZFG BKN007 OVC014 M01/M02 A3023 RMK AO2
                 SLP236 P0002 T10111022 =
2018-01-17 11:22 METAR KPOU 171622Z 31003KT 3/4SM -SN BR BKN008 OVC015 M01/M03 A3025 RMK AO2
                 P0001 T10111028 =
2018-01-17 10:53 METAR KPOU 171553Z 00000KT 1 1/2SM -SN BR BKN007 OVC012 M01/M03 A3026 RMK AO2
                 CIG 006V011 SLP245 P0001 T10111028 =
2018-01-17 10:13 METAR KPOU 171513Z 00000KT 1 1/2SM -SN BR BKN007 OVC018 M02/M03 A3027 RMK AO2
                 CIG 006V010 P0001 T10171028 =
2018-01-17 10:08 METAR KPOU 171508Z 00000KT 1 1/4SM -SN BR SCT007 OVC017 M01/M03 A3027 RMK AO2
                 P0001 T10111028 =
2018-01-17 09:53 METAR KPOU 171453Z 00000KT 3/4SM -SN BR FEW007 OVC017 M02/M03 A3027 RMK AO2
                 SLP248 P0000 60004 T10171028 58003 =
2018-01-17 09:30 METAR KPOU 171430Z 33003KT 3/4SM -SN BR SCT007 OVC016 M02/M03 A3027 RMK AO2
                 P0000 T10171033 =
2018-01-17 08:53 METAR KPOU 171353Z 00000KT 1SM -SN BR SCT006 OVC016 M02/M03 A3028 RMK AO2 SLP251
                 P0002 T10171033 =
2018-01-17 07:53 METAR KPOU 171253Z 31003KT 1/2SM SN FZFG FEW005 OVC016 M02/M03 A3028 RMK AO2
                 SLP252 P0002 T10221033 =
2018-01-17 06:53 METAR KPOU 171153Z AUTO 32003KT 1 1/2SM -SN BR FEW005 OVC023 M02/M03 A3028 RMK
                 AO2 SLP251 P0002 60011 70019 T10221033 11017 21022 57002 =
2018-01-17 06:01 METAR KPOU 171101Z AUTO 33003KT 1 1/2SM -SN BR SCT007 OVC019 M02/M03 A3028 RMK
                 AO2 P0000 T10221033 =
2018-01-17 05:53 METAR KPOU 171053Z AUTO 33003KT 1 1/2SM -SN BR BKN007 OVC019 M02/M03 A3028 RMK
                 AO2 SLP251 P0001 T10221033 =
2018-01-17 05:48 METAR KPOU 171048Z AUTO 00000KT 1 1/2SM -SN BR BKN007 OVC019 M02/M03 A3028 RMK
                 AO2 P0001 =
2018-01-17 05:17 METAR KPOU 171017Z AUTO 00000KT 1 3/4SM -SN BR SCT006 OVC018 M02/M03 A3028 RMK
                 AO2 P0000 T10221033 =
2018-01-17 05:06 METAR KPOU 171006Z AUTO 34003KT 2SM -SN BR SCT006 OVC018 M02/M03 A3029 RMK AO2
                 P0000 T10171033 =
2018-01-17 04:53 METAR KPOU 170953Z AUTO 00000KT 3SM -SN BR BKN006 OVC017 M02/M03 A3028 RMK AO2
                 SLP253 P0001 T10171033 =
2018-01-17 04:41 METAR KPOU 170941Z AUTO 33003KT 3SM -SN BR SCT006 OVC017 M02/M03 A3029 RMK AO2
                 P0001 T10171033 =
2018-01-17 04:25 METAR KPOU 170925Z AUTO 01003KT 2SM -SN BR FEW006 OVC016 M02/M03 A3028 RMK AO2
                 P0001 T10171033 =
2018-01-17 04:07 METAR KPOU 170907Z AUTO 00000KT 1 1/2SM -SN BR FEW006 OVC015 M02/M03 A3029 RMK
                 AO2 P0001 T10171033 =
2018-01-17 03:53 METAR KPOU 170853Z AUTO 34004KT 1 1/4SM -SN BR OVC014 M02/M03 A3030 RMK AO2
                 SLP258 P0001 60007 T10171033 58008 =
2018-01-17 03:24 METAR KPOU 170824Z AUTO 35003KT 1 1/2SM -SN BR FEW006 OVC014 M02/M03 A3030 RMK
                 AO2 P0001 T10171033 =
2018-01-17 03:14 METAR KPOU 170814Z AUTO 00000KT 1 1/4SM -SN BR SCT005 OVC015 M02/M03 A3031 RMK
                 AO2 P0001 T10171028 =
2018-01-17 02:53 METAR KPOU 170753Z AUTO 02003KT 1SM -SN BR FEW005 OVC014 M02/M03 A3031 RMK AO2
                 SLP262 P0004 T10171028 =
2018-01-17 02:49 METAR KPOU 170749Z AUTO 00000KT 1SM -SN BR OVC014 M02/M03 A3031 RMK AO2 P0004 =
2018-01-17 02:15 METAR KPOU 170715Z AUTO 01003KT 3/4SM -SN BR OVC012 M02/M03 A3031 RMK AO2 P0002
                 T10171028 =
2018-01-17 01:53 METAR KPOU 170653Z AUTO 00000KT 1SM -SN BR OVC010 M02/M03 A3032 RMK AO2 SLP266
                 P0002 T10171028 =
2018-01-17 01:35 METAR KPOU 170635Z AUTO 36003KT 1SM -SN BR OVC011 M02/M03 A3032 RMK AO2 CIG
                 008V013 P0001 T10171028 =
2018-01-17 01:23 METAR KPOU 170623Z AUTO 00000KT 1 1/4SM -SN BR BKN009 OVC014 M02/M03 A3032 RMK
                 AO2 CIG 008V011 P0001 T10171028 =
2018-01-17 01:15 METAR KPOU 170615Z AUTO 00000KT 1 1/4SM -SN BR OVC013 M02/M03 A3032 RMK AO2
                 P0001 T10171028 =
2018-01-17 00:53 METAR KPOU 170553Z AUTO 36003KT 1 1/4SM -SN BR FEW009 OVC015 M02/M03 A3032 RMK
                 AO2 SLP266 P0002 60005 T10171028 11017 21022 56014 =
2018-01-17 00:51 METAR KPOU 170551Z AUTO 00000KT 1 1/4SM -SN BR FEW009 OVC015 M02/M03 A3032 RMK
                 AO2 P0002 =
2018-01-17 00:38 METAR KPOU 170538Z AUTO 00000KT 1SM -SN BR FEW007 OVC014 M02/M03 A3033 RMK AO2
                 P0001 T10171028 =
2018-01-17 00:34 METAR KPOU 170534Z AUTO 00000KT 3/4SM -SN BR FEW007 OVC016 M02/M03 A3033 RMK AO2
                 P0001 T10171028 =
2018-01-17 00:22 METAR KPOU 170522Z AUTO 00000KT 1SM -SN BR FEW007 SCT013 OVC018 M02/M03 A3033
                 RMK AO2 P0001 T10171028 =
2018-01-16 23:53 METAR KPOU 170453Z AUTO 00000KT 1SM -SN BR OVC020 M02/M03 A3035 RMK AO2 SLP275
                 P0001 T10171028 410171067 =
2018-01-16 23:27 METAR KPOU 170427Z AUTO 00000KT 1 1/2SM -SN BR FEW011 OVC020 M02/M03 A3035 RMK
                 AO2 P0000 T10171028 =
2018-01-16 23:15 METAR KPOU 170415Z AUTO 00000KT 2SM -SN BR FEW004 BKN020 OVC024 M02/M03 A3036
                 RMK AO2 P0000 T10171028 =
2018-01-16 22:53 METAR KPOU 170353Z AUTO 00000KT 1 1/4SM -SN BR OVC020 M02/M03 A3036 RMK AO2
                 SLP280 P0001 T10171028 =
2018-01-16 22:41 METAR KPOU 170341Z AUTO 00000KT 1 1/2SM -SN BR BKN020 BKN029 OVC035 M02/M03
                 A3036 RMK AO2 P0001 T10171028 =
2018-01-16 21:53 METAR KPOU 170253Z AUTO 00000KT 1 1/4SM -SN BR OVC031 M02/M03 A3038 RMK AO2
                 SLP286 P0000 60001 T10171033 56009 =
2018-01-16 21:06 METAR KPOU 170206Z AUTO 00000KT 1 1/2SM -SN BR OVC032 M02/M03 A3038 RMK AO2
                 P0000 T10221028 =
2018-01-16 20:53 METAR KPOU 170153Z 00000KT 2SM -SN BR OVC030 M02/M03 A3039 RMK AO2 SLP288 P0000
                 T10221033 =
2018-01-16 19:56 METAR KPOU 170056Z 00000KT 2SM -SN BR OVC030 M02/M03 A3040 RMK AO2 P0000
                 T10171033 =
2018-01-16 19:53 METAR KPOU 170053Z 00000KT 1 1/2SM -SN BR OVC022 M02/M03 A3040 RMK AO2 SLP293
                 P0001 T10171028 =
2018-01-16 19:06 METAR KPOU 170006Z 00000KT 1 1/2SM -SN BR OVC022 M02/M03 A3041 RMK AO2 P0000
                 T10171028 =
2018-01-16 18:53 METAR KPOU 162353Z 00000KT 2SM -SN BR OVC024 M02/M03 A3041 RMK AO2 SNB12 SLP296
                 P0001 60003 T10171033 11017 21022 56004 =
2018-01-16 17:53 METAR KPOU 162253Z 00000KT 2SM BR OVC023 M02/M03 A3041 RMK AO2 SNE28 SLP297
                 P0000 T10171028 =
2018-01-16 16:53 METAR KPOU 162153Z 00000KT 1/2SM -SN FZFG VV020 M02/M03 A3041 RMK AO2 SLP298
                 P0001 T10171033 =

Support USWX by starting your Amazon purchase here.